createdAt,value
2019-06-26T00:00:10.268Z,48.70
2019-06-26T00:01:10.193Z,50.90
2019-06-26T00:02:10.307Z,51.40
2019-06-26T00:03:10.170Z,52.60
2019-06-26T00:04:10.177Z,51.80
2019-06-26T00:05:10.147Z,53.40
2019-06-26T00:06:10.139Z,52.30
2019-06-26T00:07:10.125Z,53.50
2019-06-26T00:08:10.114Z,54.70
2019-06-26T00:09:10.151Z,53.90
2019-06-26T00:10:10.107Z,53.50
2019-06-26T00:11:10.078Z,55.00
2019-06-26T00:12:10.067Z,56.10
2019-06-26T00:13:24.870Z,53.40
2019-06-26T00:14:11.085Z,55.30
2019-06-26T00:15:10.080Z,55.00
2019-06-26T00:16:10.022Z,55.00
2019-06-26T00:17:10.036Z,54.20
2019-06-26T00:18:10.003Z,53.80
2019-06-26T00:19:10.019Z,53.90
2019-06-26T00:20:09.991Z,52.60
2019-06-26T00:21:09.982Z,52.80
2019-06-26T00:22:09.966Z,52.90
2019-06-26T00:23:09.960Z,52.30
2019-06-26T00:24:09.991Z,52.80
2019-06-26T00:25:09.941Z,56.10
2019-06-26T00:26:09.925Z,53.50
2019-06-26T00:27:09.917Z,54.40
2019-06-26T00:28:09.894Z,53.30
2019-06-26T00:29:09.911Z,54.90
2019-06-26T00:30:09.886Z,55.80
2019-06-26T00:31:09.881Z,55.10
2019-06-26T00:32:09.854Z,54.20
2019-06-26T00:33:09.858Z,53.50
2019-06-26T00:34:09.863Z,52.40
2019-06-26T00:35:09.854Z,52.80
2019-06-26T00:36:09.810Z,55.60
2019-06-26T00:37:09.802Z,52.40
2019-06-26T00:38:09.796Z,54.80
2019-06-26T00:39:09.815Z,51.00
2019-06-26T00:40:09.788Z,50.80
2019-06-26T00:41:09.758Z,51.60
2019-06-26T00:42:09.756Z,52.20
2019-06-26T00:43:09.736Z,49.80
2019-06-26T00:44:09.771Z,48.40
2019-06-26T00:45:09.747Z,47.70
2019-06-26T00:46:09.709Z,44.60
2019-06-26T00:47:09.697Z,43.30
2019-06-26T00:48:09.691Z,43.30
2019-06-26T00:49:09.667Z,41.60
2019-06-26T00:50:09.688Z,40.50
2019-06-26T00:51:09.677Z,39.50
2019-06-26T00:52:09.659Z,39.00
2019-06-26T00:53:09.626Z,39.00
2019-06-26T00:54:09.636Z,38.20
2019-06-26T00:55:09.628Z,38.20
2019-06-26T00:56:09.602Z,38.40
2019-06-26T00:57:09.598Z,37.30
2019-06-26T00:58:09.579Z,37.30
2019-06-26T00:59:09.570Z,36.80
2019-06-26T01:00:09.664Z,34.20
2019-06-26T01:01:09.547Z,35.80
2019-06-26T01:02:09.536Z,36.10
2019-06-26T01:03:09.531Z,36.30
2019-06-26T01:04:09.529Z,37.80
2019-06-26T01:05:09.532Z,35.50
2019-06-26T01:06:09.498Z,35.10
2019-06-26T01:07:09.993Z,35.80
2019-06-26T01:08:09.482Z,34.90
2019-06-26T01:09:09.543Z,35.80
2019-06-26T01:10:09.483Z,34.90
2019-06-26T01:11:09.513Z,35.70
2019-06-26T01:12:09.503Z,36.40
2019-06-26T01:13:09.422Z,36.50
2019-06-26T01:14:09.406Z,36.80
2019-06-26T01:15:09.405Z,35.90
2019-06-26T01:16:09.411Z,35.70
2019-06-26T01:17:09.364Z,36.10
2019-06-26T01:18:09.360Z,36.10
2019-06-26T01:19:09.351Z,36.40
2019-06-26T01:20:09.382Z,35.70
2019-06-26T01:21:09.335Z,35.50
2019-06-26T01:22:09.330Z,37.20
2019-06-26T01:23:09.304Z,38.30
2019-06-26T01:24:09.296Z,37.40
2019-06-26T01:25:09.290Z,39.70
2019-06-26T01:26:09.334Z,40.10
2019-06-26T01:27:09.277Z,39.10
2019-06-26T01:28:09.251Z,41.10
2019-06-26T01:29:09.240Z,40.70
2019-06-26T01:30:09.292Z,42.10
2019-06-26T01:31:09.258Z,41.60
2019-06-26T01:32:09.240Z,42.50
2019-06-26T01:33:09.215Z,43.60
2019-06-26T01:34:09.202Z,41.80
2019-06-26T01:35:09.191Z,44.60
2019-06-26T01:36:09.198Z,42.50
2019-06-26T01:37:09.169Z,41.10
2019-06-26T01:38:09.153Z,43.30
2019-06-26T01:39:09.148Z,40.70
2019-06-26T01:40:09.134Z,38.40
2019-06-26T01:41:09.145Z,36.70
2019-06-26T01:42:09.130Z,34.40
2019-06-26T01:43:09.109Z,35.30
2019-06-26T01:44:14.689Z,35.70
2019-06-26T01:45:10.086Z,34.60
2019-06-26T01:46:09.091Z,38.50
2019-06-26T01:47:09.053Z,37.60
2019-06-26T01:48:09.048Z,39.70
2019-06-26T01:49:09.034Z,42.10
2019-06-26T01:50:09.025Z,39.10
2019-06-26T01:51:09.043Z,44.40
2019-06-26T01:52:09.001Z,44.90
2019-06-26T01:53:08.994Z,46.40
2019-06-26T01:54:08.999Z,45.00
2019-06-26T01:55:08.973Z,46.30
2019-06-26T01:56:08.981Z,45.70
2019-06-26T01:57:08.964Z,42.80
2019-06-26T01:58:08.939Z,44.20
2019-06-26T01:59:08.924Z,43.50
2019-06-26T02:00:08.946Z,44.90
2019-06-26T02:01:08.934Z,42.00
2019-06-26T02:02:08.893Z,37.90
2019-06-26T02:03:08.895Z,37.90
2019-06-26T02:04:08.889Z,37.30
2019-06-26T02:05:08.864Z,37.20
2019-06-26T02:06:08.896Z,42.60
2019-06-26T02:07:08.840Z,41.00
2019-06-26T02:08:08.835Z,42.90
2019-06-26T02:09:08.818Z,41.20
2019-06-26T02:10:08.816Z,42.10
2019-06-26T02:11:08.797Z,42.80
2019-06-26T02:12:08.818Z,45.20
2019-06-26T02:13:08.786Z,44.80
2019-06-26T02:14:08.768Z,44.50
2019-06-26T02:15:08.758Z,44.90
2019-06-26T02:16:08.749Z,45.10
2019-06-26T02:17:08.754Z,44.50
2019-06-26T02:18:08.749Z,45.90
2019-06-26T02:19:08.709Z,47.50
2019-06-26T02:20:08.705Z,46.70
2019-06-26T02:21:08.699Z,47.60
2019-06-26T02:22:08.717Z,49.50
2019-06-26T02:23:08.665Z,48.70
2019-06-26T02:24:08.667Z,49.00
2019-06-26T02:25:08.653Z,48.70
2019-06-26T02:26:08.644Z,48.80
2019-06-26T02:27:08.656Z,48.50
2019-06-26T02:28:08.630Z,49.80
2019-06-26T02:29:08.607Z,48.10
2019-06-26T02:30:08.611Z,46.80
2019-06-26T02:31:08.581Z,46.10
2019-06-26T02:32:08.599Z,47.00
2019-06-26T02:33:08.566Z,46.80
2019-06-26T02:34:08.564Z,45.10
2019-06-26T02:35:10.329Z,43.40
2019-06-26T02:36:08.542Z,43.50
2019-06-26T02:37:08.563Z,45.60
2019-06-26T02:38:08.543Z,45.20
2019-06-26T02:39:08.508Z,43.90
2019-06-26T02:40:08.494Z,44.90
2019-06-26T02:41:08.485Z,42.90
2019-06-26T02:42:08.496Z,44.80
2019-06-26T02:43:08.454Z,41.70
2019-06-26T02:44:08.451Z,43.30
2019-06-26T02:45:08.444Z,43.00
2019-06-26T02:46:08.429Z,43.40
2019-06-26T02:47:19.394Z,44.30
2019-06-26T02:48:09.426Z,41.90
2019-06-26T02:49:08.395Z,43.40
2019-06-26T02:50:08.388Z,44.30
2019-06-26T02:51:08.370Z,41.70
2019-06-26T02:52:08.378Z,41.30
2019-06-26T02:53:08.386Z,41.70
2019-06-26T02:54:08.335Z,42.80
2019-06-26T02:55:08.325Z,43.80
2019-06-26T02:56:08.331Z,43.40
2019-06-26T02:57:08.352Z,42.60
2019-06-26T02:58:08.299Z,42.10
2019-06-26T02:59:08.290Z,44.80
2019-06-26T03:00:08.281Z,42.20
2019-06-26T03:01:08.273Z,42.20
2019-06-26T03:02:08.286Z,42.90
2019-06-26T03:03:08.269Z,40.80
2019-06-26T03:04:08.231Z,42.60
2019-06-26T03:05:08.230Z,42.40
2019-06-26T03:06:08.239Z,41.60
2019-06-26T03:07:08.198Z,41.90
2019-06-26T03:08:08.218Z,43.60
2019-06-26T03:09:08.179Z,42.70
2019-06-26T03:10:08.176Z,42.10
2019-06-26T03:11:08.162Z,43.10
2019-06-26T03:12:08.148Z,43.00
2019-06-26T03:13:08.162Z,44.50
2019-06-26T03:14:08.125Z,44.00
2019-06-26T03:15:09.634Z,45.30
2019-06-26T03:16:08.104Z,46.00
2019-06-26T03:17:08.091Z,46.60
2019-06-26T03:18:08.089Z,47.10
2019-06-26T03:19:08.119Z,45.00
2019-06-26T03:20:08.059Z,47.80
2019-06-26T03:21:08.051Z,48.50
2019-06-26T03:22:08.044Z,47.40
2019-06-26T03:23:08.045Z,48.70
2019-06-26T03:24:08.044Z,48.60
2019-06-26T03:25:08.008Z,48.30
2019-06-26T03:26:08.003Z,49.50
2019-06-26T03:27:09.175Z,51.70
2019-06-26T03:28:07.972Z,49.80
2019-06-26T03:29:08.024Z,49.90
2019-06-26T03:30:07.962Z,50.80
2019-06-26T03:31:07.949Z,50.10
2019-06-26T03:32:07.923Z,51.80
2019-06-26T03:33:07.929Z,52.10
2019-06-26T03:34:07.938Z,51.00
2019-06-26T03:35:07.960Z,50.70
2019-06-26T03:36:07.895Z,52.70
2019-06-26T03:37:07.879Z,49.90
2019-06-26T03:38:07.870Z,49.50
2019-06-26T03:39:07.917Z,49.90
2019-06-26T03:40:07.856Z,49.60
2019-06-26T03:41:07.843Z,50.40
2019-06-26T03:42:07.827Z,49.70
2019-06-26T03:43:08.018Z,49.90
2019-06-26T03:44:07.816Z,49.60
2019-06-26T03:45:21.391Z,48.20
2019-06-26T03:46:08.776Z,49.70
2019-06-26T03:47:07.777Z,50.40
2019-06-26T03:48:07.756Z,50.40
2019-06-26T03:49:07.782Z,51.20
2019-06-26T03:50:07.741Z,50.30
2019-06-26T03:51:07.735Z,52.00
2019-06-26T03:52:07.723Z,51.40
2019-06-26T03:53:08.510Z,52.40
2019-06-26T03:54:07.720Z,52.00
2019-06-26T03:55:07.729Z,51.80
2019-06-26T03:56:07.699Z,54.20
2019-06-26T03:57:07.662Z,53.10
2019-06-26T03:58:07.664Z,54.10
2019-06-26T03:59:07.644Z,52.60
2019-06-26T04:00:07.654Z,53.20
2019-06-26T04:01:07.729Z,55.20
2019-06-26T04:02:07.612Z,55.70
2019-06-26T04:03:07.604Z,54.50
2019-06-26T04:04:07.611Z,52.20
2019-06-26T04:05:07.650Z,52.50
2019-06-26T04:06:07.570Z,52.90
2019-06-26T04:07:07.560Z,55.00
2019-06-26T04:08:07.570Z,54.30
2019-06-26T04:09:07.545Z,52.60
2019-06-26T04:10:07.554Z,54.10
2019-06-26T04:11:07.520Z,53.50
2019-06-26T04:12:07.509Z,56.60
2019-06-26T04:13:07.484Z,51.30
2019-06-26T04:14:07.480Z,51.70
2019-06-26T04:15:07.493Z,54.20
2019-06-26T04:16:07.465Z,53.00
2019-06-26T04:17:07.446Z,54.60
2019-06-26T04:18:07.441Z,56.10
2019-06-26T04:19:07.427Z,54.30
2019-06-26T04:20:07.450Z,53.50
2019-06-26T04:21:07.447Z,53.40
2019-06-26T04:22:07.394Z,55.10
2019-06-26T04:23:07.385Z,53.00
2019-06-26T04:24:07.386Z,52.30
2019-06-26T04:25:07.395Z,52.60
2019-06-26T04:26:07.352Z,52.00
2019-06-26T04:27:07.347Z,53.00
2019-06-26T04:28:07.386Z,54.20
2019-06-26T04:29:07.315Z,52.30
2019-06-26T04:30:07.311Z,51.30
2019-06-26T04:31:07.346Z,52.90
2019-06-26T04:32:07.294Z,53.40
2019-06-26T04:33:07.277Z,52.30
2019-06-26T04:34:07.268Z,52.10
2019-06-26T04:35:07.256Z,55.50
2019-06-26T04:36:07.278Z,52.50
2019-06-26T04:37:07.238Z,51.90
2019-06-26T04:38:07.229Z,53.10
2019-06-26T04:39:07.207Z,52.30
2019-06-26T04:40:07.218Z,52.30
2019-06-26T04:41:07.249Z,53.30
2019-06-26T04:42:07.192Z,54.70
2019-06-26T04:43:07.169Z,53.00
2019-06-26T04:44:07.169Z,52.60
2019-06-26T04:45:07.159Z,52.20
2019-06-26T04:46:07.189Z,51.20
2019-06-26T04:47:07.147Z,53.70
2019-06-26T04:48:07.589Z,51.40
2019-06-26T04:49:07.112Z,54.10
2019-06-26T04:50:07.105Z,53.10
2019-06-26T04:51:07.128Z,54.90
2019-06-26T04:52:07.069Z,52.00
2019-06-26T04:53:07.057Z,53.20
2019-06-26T04:54:07.058Z,54.00
2019-06-26T04:55:07.046Z,53.20
2019-06-26T04:56:07.065Z,52.20
2019-06-26T04:57:07.015Z,52.90
2019-06-26T04:58:07.012Z,54.60
2019-06-26T04:59:06.996Z,55.70
2019-06-26T05:00:07.005Z,54.20
2019-06-26T05:01:06.968Z,56.50
2019-06-26T05:02:06.999Z,52.60
2019-06-26T05:03:06.953Z,55.00
2019-06-26T05:04:06.953Z,55.70
2019-06-26T05:05:06.995Z,57.00
2019-06-26T05:06:06.942Z,58.90
2019-06-26T05:07:07.234Z,57.20
2019-06-26T05:08:06.914Z,57.10
2019-06-26T05:09:06.907Z,57.80
2019-06-26T05:10:06.910Z,57.90
2019-06-26T05:11:06.874Z,59.50
2019-06-26T05:12:06.887Z,58.80
2019-06-26T05:13:06.874Z,64.10
2019-06-26T05:14:06.849Z,64.10
2019-06-26T05:15:06.848Z,62.90
2019-06-26T05:16:14.937Z,63.20
2019-06-26T05:17:07.844Z,65.40
2019-06-26T05:18:06.802Z,63.30
2019-06-26T05:19:06.785Z,66.40
2019-06-26T05:20:06.777Z,68.50
2019-06-26T05:21:06.758Z,65.70
2019-06-26T05:22:06.791Z,67.30
2019-06-26T05:23:06.748Z,65.10
2019-06-26T05:24:06.736Z,68.10
2019-06-26T05:25:06.722Z,65.70
2019-06-26T05:26:06.710Z,67.40
2019-06-26T05:27:06.735Z,65.10
2019-06-26T05:28:08.440Z,67.50
2019-06-26T05:29:06.686Z,66.90
2019-06-26T05:30:06.671Z,64.30
2019-06-26T05:31:06.672Z,65.10
2019-06-26T05:32:06.688Z,68.60
2019-06-26T05:33:06.637Z,64.60
2019-06-26T05:34:09.870Z,66.80
2019-06-26T05:35:06.615Z,68.50
2019-06-26T05:36:06.613Z,67.70
2019-06-26T05:37:06.605Z,67.60
2019-06-26T05:38:06.611Z,70.10
2019-06-26T05:39:06.663Z,68.60
2019-06-26T05:40:06.562Z,70.60
2019-06-26T05:41:06.562Z,68.70
2019-06-26T05:42:06.928Z,70.90
2019-06-26T05:43:06.583Z,70.30
2019-06-26T05:44:06.541Z,71.40
2019-06-26T05:45:06.522Z,67.80
2019-06-26T05:46:06.495Z,71.00
2019-06-26T05:47:07.316Z,74.10
2019-06-26T05:48:06.522Z,74.10
2019-06-26T05:49:06.473Z,75.20
2019-06-26T05:50:06.463Z,74.40
2019-06-26T05:51:06.474Z,75.80
2019-06-26T05:52:06.442Z,75.10
2019-06-26T05:53:06.455Z,73.50
2019-06-26T05:54:06.433Z,73.90
2019-06-26T05:55:06.427Z,73.10
2019-06-26T05:56:06.407Z,74.00
2019-06-26T05:57:06.378Z,74.80
2019-06-26T05:58:06.401Z,74.10
2019-06-26T05:59:06.359Z,72.50
2019-06-26T06:00:06.364Z,74.20
2019-06-26T06:01:06.343Z,73.20
2019-06-26T06:02:06.325Z,71.90
2019-06-26T06:03:06.347Z,76.80
2019-06-26T06:04:06.313Z,77.30
2019-06-26T06:05:06.305Z,74.10
2019-06-26T06:06:06.347Z,76.30
2019-06-26T06:07:06.275Z,76.80
2019-06-26T06:08:06.311Z,75.30
2019-06-26T06:09:06.249Z,77.50
2019-06-26T06:10:06.243Z,73.70
2019-06-26T06:11:06.269Z,73.70
2019-06-26T06:12:06.258Z,75.60
2019-06-26T06:13:06.240Z,77.00
2019-06-26T06:14:06.227Z,75.40
2019-06-26T06:15:06.201Z,75.50
2019-06-26T06:16:06.620Z,77.80
2019-06-26T06:17:06.164Z,75.30
2019-06-26T06:18:06.183Z,73.90
2019-06-26T06:19:06.182Z,77.50
2019-06-26T06:20:06.130Z,76.90
2019-06-26T06:21:06.131Z,75.20
2019-06-26T06:22:06.112Z,76.20
2019-06-26T06:23:06.150Z,74.20
2019-06-26T06:24:06.114Z,74.40
2019-06-26T06:25:06.108Z,75.80
2019-06-26T06:26:06.079Z,77.50
2019-06-26T06:27:06.056Z,77.10
2019-06-26T06:28:06.052Z,74.90
2019-06-26T06:29:06.085Z,74.00
2019-06-26T06:30:06.037Z,75.30
2019-06-26T06:31:06.037Z,75.50
2019-06-26T06:32:06.024Z,75.70
2019-06-26T06:33:05.992Z,73.90
2019-06-26T06:34:06.012Z,74.60
2019-06-26T06:35:05.984Z,71.60
2019-06-26T06:36:08.790Z,74.50
2019-06-26T06:37:06.677Z,72.10
2019-06-26T06:38:05.954Z,72.70
2019-06-26T06:39:05.968Z,73.90
2019-06-26T06:40:05.931Z,76.10
2019-06-26T06:41:05.910Z,74.90
2019-06-26T06:42:05.895Z,74.60
2019-06-26T06:43:05.893Z,73.80
2019-06-26T06:44:05.923Z,75.40
2019-06-26T06:45:05.866Z,71.50
2019-06-26T06:46:05.891Z,74.30
2019-06-26T06:47:08.896Z,76.10
2019-06-26T06:48:05.828Z,73.00
2019-06-26T06:49:05.848Z,74.50
2019-06-26T06:50:05.882Z,73.00
2019-06-26T06:51:05.836Z,72.80
2019-06-26T06:52:05.799Z,75.00
2019-06-26T06:53:05.776Z,75.90
2019-06-26T06:54:05.767Z,72.90
2019-06-26T06:55:05.784Z,73.90
2019-06-26T06:56:05.761Z,75.10
2019-06-26T06:57:05.741Z,79.40
2019-06-26T06:58:05.743Z,80.90
2019-06-26T06:59:05.721Z,76.60
2019-06-26T07:00:05.729Z,71.90
2019-06-26T07:01:05.692Z,79.50
2019-06-26T07:02:05.687Z,76.60
2019-06-26T07:03:05.713Z,80.40
2019-06-26T07:04:05.669Z,75.40
2019-06-26T07:05:05.699Z,78.00
2019-06-26T07:06:05.668Z,76.60
2019-06-26T07:07:05.632Z,77.10
2019-06-26T07:08:05.641Z,73.80
2019-06-26T07:09:05.626Z,74.20
2019-06-26T07:10:05.653Z,78.60
2019-06-26T07:11:05.591Z,77.40
2019-06-26T07:12:05.586Z,75.50
2019-06-26T07:13:05.622Z,75.70
2019-06-26T07:14:05.620Z,72.00
2019-06-26T07:15:05.555Z,76.10
2019-06-26T07:16:05.558Z,77.10
2019-06-26T07:17:19.391Z,73.20
2019-06-26T07:18:06.515Z,77.50
2019-06-26T07:19:05.523Z,76.00
2019-06-26T07:20:05.533Z,77.70
2019-06-26T07:21:05.490Z,78.80
2019-06-26T07:22:07.363Z,71.80
2019-06-26T07:23:05.464Z,75.70
2019-06-26T07:24:05.448Z,71.80
2019-06-26T07:25:05.495Z,74.70
2019-06-26T07:26:05.457Z,75.90
2019-06-26T07:27:05.420Z,76.30
2019-06-26T07:28:05.452Z,75.00
2019-06-26T07:29:05.417Z,72.60
2019-06-26T07:30:05.426Z,71.20
2019-06-26T07:31:05.392Z,72.10
2019-06-26T07:32:05.366Z,73.90
2019-06-26T07:33:05.377Z,71.60
2019-06-26T07:34:05.346Z,74.20
2019-06-26T07:35:05.380Z,75.80
2019-06-26T07:36:05.379Z,73.90
2019-06-26T07:37:05.332Z,76.00
2019-06-26T07:38:05.322Z,75.00
2019-06-26T07:39:05.302Z,76.70
2019-06-26T07:40:05.290Z,71.50
2019-06-26T07:41:05.301Z,72.60
2019-06-26T07:42:05.269Z,75.00
2019-06-26T07:43:05.263Z,66.20
2019-06-26T07:44:05.246Z,71.90
2019-06-26T07:45:05.245Z,70.30
2019-06-26T07:46:05.255Z,70.00
2019-06-26T07:47:12.644Z,66.70
2019-06-26T07:48:06.210Z,66.70
2019-06-26T07:49:05.190Z,71.80
2019-06-26T07:50:05.193Z,72.60
2019-06-26T07:51:05.197Z,71.40
2019-06-26T07:52:05.170Z,70.60
2019-06-26T07:53:05.146Z,72.10
2019-06-26T07:54:05.146Z,71.60
2019-06-26T07:55:05.122Z,67.60
2019-06-26T07:56:05.157Z,67.80
2019-06-26T07:57:05.109Z,68.60
2019-06-26T07:58:05.104Z,69.00
2019-06-26T07:59:05.101Z,71.10
2019-06-26T08:00:05.073Z,71.80
2019-06-26T08:01:05.114Z,69.60
2019-06-26T08:02:05.057Z,68.90
2019-06-26T08:03:05.048Z,67.80
2019-06-26T08:04:05.034Z,72.40
2019-06-26T08:05:05.034Z,66.90
2019-06-26T08:06:05.023Z,63.90
2019-06-26T08:07:05.040Z,68.10
2019-06-26T08:08:04.991Z,67.90
2019-06-26T08:09:04.986Z,72.00
2019-06-26T08:10:04.976Z,71.60
2019-06-26T08:11:06.495Z,70.00
2019-06-26T08:12:04.961Z,74.30
2019-06-26T08:13:04.937Z,69.20
2019-06-26T08:14:04.926Z,69.90
2019-06-26T08:15:04.939Z,72.00
2019-06-26T08:16:04.935Z,72.00
2019-06-26T08:17:04.944Z,74.70
2019-06-26T08:18:04.892Z,71.70
2019-06-26T08:19:05.397Z,68.00
2019-06-26T08:20:04.883Z,71.80
2019-06-26T08:21:12.056Z,72.70
2019-06-26T08:22:05.888Z,73.20
2019-06-26T08:23:04.840Z,70.40
2019-06-26T08:24:04.834Z,72.20
2019-06-26T08:25:04.822Z,72.50
2019-06-26T08:26:04.821Z,73.30
2019-06-26T08:27:04.821Z,69.60
2019-06-26T08:28:04.780Z,70.80
2019-06-26T08:29:04.786Z,70.70
2019-06-26T08:30:04.769Z,70.00
2019-06-26T08:31:04.758Z,70.30
2019-06-26T08:32:04.792Z,65.00
2019-06-26T08:33:04.734Z,71.30
2019-06-26T08:34:04.735Z,70.80
2019-06-26T08:35:04.719Z,73.80
2019-06-26T08:36:04.707Z,72.30
2019-06-26T08:37:04.701Z,68.00
2019-06-26T08:38:12.504Z,70.30
2019-06-26T08:39:05.706Z,68.00
2019-06-26T08:40:04.679Z,69.30
2019-06-26T08:41:04.683Z,68.10
2019-06-26T08:42:04.649Z,71.20
2019-06-26T08:43:04.659Z,73.30
2019-06-26T08:44:04.649Z,68.20
2019-06-26T08:45:04.675Z,64.80
2019-06-26T08:46:04.605Z,63.50
2019-06-26T08:47:04.601Z,70.10
2019-06-26T08:48:18.918Z,69.30
2019-06-26T08:49:05.573Z,68.80
2019-06-26T08:50:04.565Z,64.10
2019-06-26T08:51:04.556Z,71.10
2019-06-26T08:52:04.574Z,69.20
2019-06-26T08:53:04.563Z,68.10
2019-06-26T08:54:04.883Z,67.20
2019-06-26T08:55:04.531Z,68.10
2019-06-26T08:56:04.534Z,64.40
2019-06-26T08:57:04.519Z,66.10
2019-06-26T08:58:04.515Z,66.90
2019-06-26T08:59:04.481Z,69.60
2019-06-26T09:00:04.457Z,65.40
2019-06-26T09:01:04.456Z,63.20
2019-06-26T09:02:04.441Z,70.10
2019-06-26T09:03:04.532Z,62.30
2019-06-26T09:04:04.420Z,64.10
2019-06-26T09:05:04.425Z,66.50
2019-06-26T09:06:04.394Z,65.70
2019-06-26T09:07:04.382Z,66.40
2019-06-26T09:08:04.457Z,71.00
2019-06-26T09:09:04.372Z,66.70
2019-06-26T09:10:04.346Z,64.00
2019-06-26T09:11:04.359Z,64.60
2019-06-26T09:12:04.331Z,64.00
2019-06-26T09:13:04.371Z,66.90
2019-06-26T09:14:04.339Z,62.30
2019-06-26T09:15:04.312Z,66.60
2019-06-26T09:16:04.297Z,68.40
2019-06-26T09:17:04.273Z,67.30
2019-06-26T09:18:04.266Z,66.50
2019-06-26T09:19:04.288Z,66.30
2019-06-26T09:20:04.508Z,65.50
2019-06-26T09:21:04.261Z,65.90
2019-06-26T09:22:04.236Z,64.80
2019-06-26T09:23:04.227Z,64.40
2019-06-26T09:24:04.251Z,64.40
2019-06-26T09:25:20.145Z,64.10
2019-06-26T09:26:05.195Z,62.60
2019-06-26T09:27:04.195Z,65.80
2019-06-26T09:28:04.159Z,64.40
2019-06-26T09:29:04.217Z,61.70
2019-06-26T09:30:04.147Z,61.40
2019-06-26T09:31:04.135Z,63.20
2019-06-26T09:32:04.141Z,63.50
2019-06-26T09:33:04.130Z,66.10
2019-06-26T09:34:04.141Z,63.00
2019-06-26T09:35:04.102Z,62.10
2019-06-26T09:36:06.883Z,65.60
2019-06-26T09:37:04.075Z,65.90
2019-06-26T09:38:04.068Z,65.40
2019-06-26T09:39:04.100Z,63.00
2019-06-26T09:40:04.084Z,61.10
2019-06-26T09:41:04.049Z,64.40
2019-06-26T09:42:04.030Z,63.10
2019-06-26T09:43:04.011Z,61.00
2019-06-26T09:44:04.027Z,61.80
2019-06-26T09:45:04.019Z,61.10
2019-06-26T09:46:04.019Z,59.70
2019-06-26T09:47:03.985Z,64.00
2019-06-26T09:48:03.964Z,64.70
2019-06-26T09:49:03.978Z,62.30
2019-06-26T09:50:03.934Z,60.30
2019-06-26T09:51:03.948Z,62.70
2019-06-26T09:52:03.925Z,60.10
2019-06-26T09:53:05.450Z,59.90
2019-06-26T09:54:03.940Z,57.00
2019-06-26T09:55:03.887Z,56.20
2019-06-26T09:56:03.874Z,59.50
2019-06-26T09:57:03.875Z,57.70
2019-06-26T09:58:03.862Z,59.40
2019-06-26T09:59:03.878Z,56.60
2019-06-26T10:00:03.854Z,58.00
2019-06-26T10:01:03.819Z,59.30
2019-06-26T10:02:03.824Z,57.70
2019-06-26T10:03:03.903Z,57.80
2019-06-26T10:04:03.828Z,58.50
2019-06-26T10:05:03.789Z,59.60
2019-06-26T10:06:03.809Z,56.30
2019-06-26T10:07:03.760Z,60.20
2019-06-26T10:08:03.763Z,59.60
2019-06-26T10:09:03.744Z,56.80
2019-06-26T10:10:03.762Z,60.60
2019-06-26T10:11:03.778Z,58.70
2019-06-26T10:12:03.719Z,58.60
2019-06-26T10:13:03.708Z,59.40
2019-06-26T10:14:03.710Z,58.60
2019-06-26T10:15:03.701Z,57.40
2019-06-26T10:16:03.663Z,62.60
2019-06-26T10:17:03.658Z,56.00
2019-06-26T10:18:03.669Z,59.80
2019-06-26T10:19:10.105Z,56.60
2019-06-26T10:20:04.652Z,60.80
2019-06-26T10:21:03.625Z,59.30
2019-06-26T10:22:03.604Z,55.40
2019-06-26T10:23:03.594Z,58.20
2019-06-26T10:24:03.618Z,60.70
2019-06-26T10:25:03.653Z,57.90
2019-06-26T10:26:03.578Z,59.10
2019-06-26T10:27:03.565Z,63.20
2019-06-26T10:28:03.546Z,61.30
2019-06-26T10:29:03.536Z,61.80
2019-06-26T10:30:03.517Z,62.50
2019-06-26T10:31:03.550Z,57.80
2019-06-26T10:32:03.523Z,61.70
2019-06-26T10:33:03.492Z,61.10
2019-06-26T10:34:03.616Z,59.90
2019-06-26T10:35:03.468Z,60.40
2019-06-26T10:36:03.510Z,59.40
2019-06-26T10:37:03.484Z,60.10
2019-06-26T10:38:03.445Z,57.40
2019-06-26T10:39:03.538Z,56.70
2019-06-26T10:40:03.414Z,57.40
2019-06-26T10:41:03.426Z,59.80
2019-06-26T10:42:03.391Z,59.10
2019-06-26T10:43:03.407Z,60.60
2019-06-26T10:44:03.396Z,58.80
2019-06-26T10:45:03.371Z,58.00
2019-06-26T10:46:03.387Z,56.50
2019-06-26T10:47:03.352Z,56.50
2019-06-26T10:48:03.440Z,56.90
2019-06-26T10:49:03.426Z,53.60
2019-06-26T10:50:03.629Z,51.70
2019-06-26T10:51:03.348Z,56.90
2019-06-26T10:52:03.384Z,53.20
2019-06-26T10:53:03.272Z,56.60
2019-06-26T10:54:03.292Z,57.20
2019-06-26T10:55:03.304Z,55.60
2019-06-26T10:56:03.242Z,56.70
2019-06-26T10:57:03.345Z,59.20
2019-06-26T10:58:03.224Z,58.70
2019-06-26T10:59:03.222Z,58.60
2019-06-26T11:00:03.262Z,57.90
2019-06-26T11:01:03.198Z,58.00
2019-06-26T11:02:03.220Z,55.30
2019-06-26T11:03:03.170Z,57.40
2019-06-26T11:04:03.157Z,54.50
2019-06-26T11:05:03.149Z,53.50
2019-06-26T11:06:03.177Z,51.40
2019-06-26T11:07:03.147Z,57.80
2019-06-26T11:08:03.123Z,55.00
2019-06-26T11:09:03.103Z,55.60
2019-06-26T11:10:03.112Z,55.60
2019-06-26T11:11:03.124Z,51.90
2019-06-26T11:12:03.110Z,52.10
2019-06-26T11:13:03.061Z,52.90
2019-06-26T11:14:03.052Z,52.70
2019-06-26T11:15:03.051Z,54.80
2019-06-26T11:16:03.049Z,55.00
2019-06-26T11:17:03.057Z,56.90
2019-06-26T11:18:03.021Z,57.60
2019-06-26T11:19:02.998Z,55.20
2019-06-26T11:20:02.989Z,56.10
2019-06-26T11:21:03.027Z,59.00
2019-06-26T11:22:03.127Z,56.10
2019-06-26T11:23:02.964Z,53.60
2019-06-26T11:24:02.956Z,51.30
2019-06-26T11:25:03.029Z,53.80
2019-06-26T11:26:02.935Z,49.00
2019-06-26T11:27:02.982Z,49.30
2019-06-26T11:28:02.988Z,55.60
2019-06-26T11:29:02.907Z,54.30
2019-06-26T11:30:02.884Z,55.90
2019-06-26T11:31:02.895Z,56.40
2019-06-26T11:32:02.899Z,57.10
2019-06-26T11:33:02.890Z,57.40
2019-06-26T11:34:02.841Z,58.50
2019-06-26T11:35:02.860Z,56.90
2019-06-26T11:36:02.829Z,57.40
2019-06-26T11:37:04.508Z,55.50
2019-06-26T11:38:02.845Z,56.90
2019-06-26T11:39:02.818Z,54.80
2019-06-26T11:40:02.785Z,57.50
2019-06-26T11:41:02.773Z,51.10
2019-06-26T11:42:02.785Z,53.60
2019-06-26T11:43:02.826Z,53.40
2019-06-26T11:44:02.891Z,54.20
2019-06-26T11:45:02.759Z,54.30
2019-06-26T11:46:02.754Z,53.00
2019-06-26T11:47:02.739Z,48.20
2019-06-26T11:48:02.742Z,48.20
2019-06-26T11:49:02.716Z,49.10
2019-06-26T11:50:02.672Z,51.00
2019-06-26T11:51:02.674Z,45.30
2019-06-26T11:52:02.691Z,45.10
2019-06-26T11:53:02.671Z,45.10
2019-06-26T11:54:02.652Z,46.20
2019-06-26T11:55:03.788Z,47.40
2019-06-26T11:56:02.622Z,46.50
2019-06-26T11:57:02.701Z,47.80
2019-06-26T11:59:11.502Z,42.40
2019-06-26T12:00:11.760Z,48.80
2019-06-26T12:01:11.458Z,48.30
2019-06-26T12:02:11.476Z,48.40
2019-06-26T12:03:13.359Z,46.40
2019-06-26T12:04:11.469Z,47.50
2019-06-26T12:05:11.425Z,46.30
2019-06-26T12:06:18.667Z,45.90
2019-06-26T12:07:12.402Z,39.80
2019-06-26T12:08:11.453Z,40.90
2019-06-26T12:09:11.512Z,40.20
2019-06-26T12:10:11.566Z,41.60
2019-06-26T12:11:11.354Z,43.00
2019-06-26T12:12:11.354Z,39.90
2019-06-26T12:13:11.342Z,42.70
2019-06-26T12:14:11.346Z,40.20
2019-06-26T12:15:11.383Z,37.80
2019-06-26T12:16:11.327Z,37.20
2019-06-26T12:17:11.295Z,38.20
2019-06-26T12:18:11.313Z,38.70
2019-06-26T12:19:11.299Z,40.20
2019-06-26T12:20:18.651Z,41.80
2019-06-26T12:21:12.366Z,40.60
2019-06-26T12:22:11.265Z,38.20
2019-06-26T12:23:11.234Z,36.80
2019-06-26T12:24:11.357Z,38.10
2019-06-26T12:25:11.213Z,38.20
2019-06-26T12:26:11.205Z,33.90
2019-06-26T12:27:11.199Z,37.20
2019-06-26T12:28:11.181Z,34.80
2019-06-26T12:29:11.208Z,36.90
2019-06-26T12:30:11.188Z,34.60
2019-06-26T12:31:11.153Z,38.30
2019-06-26T12:32:11.139Z,39.70
2019-06-26T12:33:11.135Z,40.70
2019-06-26T12:34:11.180Z,39.20
2019-06-26T12:35:11.114Z,40.10
2019-06-26T12:36:11.091Z,41.00
2019-06-26T12:37:11.076Z,39.10
2019-06-26T12:38:11.072Z,36.60
2019-06-26T12:39:11.112Z,29.90
2019-06-26T12:40:11.052Z,35.30
2019-06-26T12:41:11.042Z,37.30
2019-06-26T12:42:11.022Z,33.10
2019-06-26T12:43:11.294Z,33.30
2019-06-26T12:44:11.042Z,36.00
2019-06-26T12:45:11.021Z,30.90
2019-06-26T12:46:10.982Z,29.00
2019-06-26T12:47:10.972Z,32.90
2019-06-26T12:48:10.973Z,32.30
2019-06-26T12:49:10.977Z,33.70
2019-06-26T12:50:10.947Z,30.60
2019-06-26T12:51:10.954Z,31.90
2019-06-26T12:52:10.923Z,29.90
2019-06-26T12:53:10.909Z,30.50